Time;durP1;ratioP1;P1;durP2;ratioP2;P2;SDS_P1;SDS_P2;PMS_P1;PMS_P2;Temp;Humidity;BMP_temperature;BMP_pressure;BME280_temperature;BME280_humidity;BME280_pressure;Samples;Min_cycle;Max_cycle;Signal;HPM_P1;HPM_P2
2023/12/10 00:01:19;;;;;;;3.20;3.00;;;;;;;4.44;99.80;95432.19;5133140;27;20529;-55
2023/12/10 00:03:48;;;;;;;1.10;0.93;;;;;;;4.65;97.86;95434.25;5132987;27;20807;-55
2023/12/10 00:06:16;;;;;;;2.03;1.87;;;;;;;4.90;95.78;95433.97;5131971;27;20919;-56
2023/12/10 00:08:45;;;;;;;0.70;0.60;;;;;;;4.98;92.82;95431.00;5133306;27;20438;-56
2023/12/10 00:11:13;;;;;;;1.60;1.50;;;;;;;4.99;93.75;95430.75;5132389;27;20513;-56
2023/12/10 00:13:44;;;;;;;1.30;1.20;;;;;;;5.05;92.65;95426.41;5133364;27;20473;-56
2023/12/10 00:16:14;;;;;;;0.87;0.87;;;;;;;4.94;92.86;95424.59;5133051;27;20457;-56
2023/12/10 00:18:43;;;;;;;1.43;1.33;;;;;;;4.99;93.35;95422.88;5132943;27;20829;-56
2023/12/10 00:21:14;;;;;;;3.47;1.70;;;;;;;5.07;93.18;95429.59;5132805;27;20491;-56
2023/12/10 00:23:43;;;;;;;2.53;1.53;;;;;;;5.14;91.62;95428.44;5132786;27;20844;-56
2023/12/10 00:26:12;;;;;;;1.27;1.00;;;;;;;5.23;91.38;95422.84;5132630;27;20422;-56
2023/12/10 00:28:40;;;;;;;1.53;0.70;;;;;;;5.13;91.09;95426.06;5132689;27;20447;-56
2023/12/10 00:31:11;;;;;;;1.63;1.60;;;;;;;5.19;90.74;95417.22;5132637;27;20787;-56
2023/12/10 00:33:40;;;;;;;1.17;1.07;;;;;;;5.13;90.70;95423.44;5132143;27;20867;-56
2023/12/10 00:36:09;;;;;;;1.77;1.67;;;;;;;5.06;91.42;95423.53;5133074;27;20487;-56
2023/12/10 00:38:38;;;;;;;0.93;0.93;;;;;;;4.82;91.42;95382.63;5132052;27;20470;-56
2023/12/10 00:41:10;;;;;;;1.50;1.37;;;;;;;5.20;90.66;95424.09;5132713;27;20499;-56
2023/12/10 00:43:40;;;;;;;0.50;0.50;;;;;;;5.30;90.59;95415.59;5132533;27;20458;-56
2023/12/10 00:46:11;;;;;;;1.00;1.00;;;;;;;4.68;89.31;95310.38;5132685;27;20442;-57
2023/12/10 00:48:40;;;;;;;2.10;1.87;;;;;;;5.26;89.06;95417.13;5132108;27;20443;-56
2023/12/10 00:51:19;;;;;;;0.80;0.70;;;;;;;5.10;90.93;95423.88;5131393;27;20439;-56
2023/12/10 00:53:48;;;;;;;3.90;1.67;;;;;;;5.14;90.35;95422.38;5132018;27;20476;-56
2023/12/10 00:56:17;;;;;;;5.70;0.97;;;;;;;5.17;90.29;95423.75;5132382;27;21015;-56
2023/12/10 00:58:45;;;;;;;1.03;0.93;;;;;;;4.87;92.26;95427.38;5132007;27;20965;-56
2023/12/10 01:01:16;;;;;;;1.67;1.57;;;;;;;4.75;94.20;95433.66;5132394;27;20434;-56
2023/12/10 01:03:44;;;;;;;1.80;1.40;;;;;;;4.78;94.05;95428.72;5106365;28;20883;-56
2023/12/10 01:06:13;;;;;;;2.07;1.17;;;;;;;4.96;94.03;95419.91;5131758;28;20438;-56
2023/12/10 01:08:43;;;;;;;2.17;1.70;;;;;;;4.96;92.93;95414.66;5132830;28;20530;-56
2023/12/10 01:11:12;;;;;;;0.80;0.80;;;;;;;4.88;93.72;95415.81;5132189;28;20439;-56
2023/12/10 01:13:41;;;;;;;0.70;0.70;;;;;;;4.61;95.48;95406.84;5132396;28;20527;-56
2023/12/10 01:16:12;;;;;;;1.20;1.10;;;;;;;4.42;98.27;95402.75;5132523;28;20430;-56
2023/12/10 01:18:42;;;;;;;0.97;0.97;;;;;;;4.58;98.43;95399.41;5134575;27;20435;-57
2023/12/10 01:21:11;;;;;;;1.60;1.50;;;;;;;4.61;97.36;95385.03;5133214;27;20958;-56
2023/12/10 01:23:40;;;;;;;1.40;1.30;;;;;;;4.59;96.23;95366.91;5136034;27;20521;-55
2023/12/10 01:26:12;;;;;;;1.17;0.97;;;;;;;4.07;97.62;95394.88;5136231;27;20430;-56
2023/12/10 01:28:41;;;;;;;0.60;0.60;;;;;;;3.78;100.00;95377.38;5135857;27;20432;-56
2023/12/10 01:31:10;;;;;;;1.00;0.90;;;;;;;3.74;100.00;95387.50;5136115;27;20498;-56
2023/12/10 01:33:39;;;;;;;1.00;1.00;;;;;;;3.76;100.00;95398.56;5135678;27;20551;-56
2023/12/10 01:36:10;;;;;;;4.40;1.63;;;;;;;3.93;100.00;95403.16;5135630;27;21021;-56
2023/12/10 01:38:38;;;;;;;1.37;0.97;;;;;;;4.14;99.61;95392.13;5135958;27;20949;-56
2023/12/10 01:41:07;;;;;;;5.10;1.23;;;;;;;4.42;96.50;95381.75;5135774;27;20755;-56
2023/12/10 01:43:35;;;;;;;1.47;1.47;;;;;;;4.41;95.57;95380.94;5136405;27;20442;-57
2023/12/10 01:46:04;;;;;;;1.63;0.50;;;;;;;4.30;94.91;95360.75;5135153;27;20533;-56
2023/12/10 01:48:34;;;;;;;3.40;1.07;;;;;;;4.39;94.87;95382.22;5135955;27;20430;-56
2023/12/10 01:51:04;;;;;;;1.20;1.10;;;;;;;4.25;95.48;95378.22;5094926;28;20936;-56
2023/12/10 01:53:34;;;;;;;1.40;1.33;;;;;;;4.26;95.47;95372.75;5094913;28;20467;-56
2023/12/10 01:56:03;;;;;;;0.63;0.60;;;;;;;4.42;94.62;95371.25;5095209;28;20501;-57
2023/12/10 01:58:31;;;;;;;0.50;0.40;;;;;;;4.46;93.01;95360.06;5094521;28;20497;-56
2023/12/10 02:01:01;;;;;;;1.23;0.80;;;;;;;4.39;93.67;95369.09;5094518;28;20936;-56
2023/12/10 02:03:33;;;;;;;0.90;0.63;;;;;;;4.41;93.85;95372.28;5068823;28;20447;-57
2023/12/10 02:06:03;;;;;;;0.87;0.50;;;;;;;4.34;94.21;95375.03;5094803;28;20436;-57
2023/12/10 02:08:33;;;;;;;1.93;1.17;;;;;;;4.30;94.23;95373.09;5094777;28;20475;-56
2023/12/10 02:11:01;;;;;;;1.43;1.33;;;;;;;4.35;93.95;95368.72;5094035;28;20527;-56
2023/12/10 02:13:31;;;;;;;0.97;0.83;;;;;;;4.30;94.68;95365.22;5094318;28;20449;-55
2023/12/10 02:16:00;;;;;;;1.57;1.47;;;;;;;4.35;94.72;95375.84;5092661;28;20444;-55
2023/12/10 02:18:28;;;;;;;0.63;0.63;;;;;;;4.37;94.43;95371.94;5094526;28;20460;-56
2023/12/10 02:20:57;;;;;;;2.17;1.60;;;;;;;4.35;94.85;95373.97;5094107;28;20836;-57
2023/12/10 02:23:39;;;;;;;1.63;1.53;;;;;;;4.46;93.83;95367.13;5094887;28;20993;-56
2023/12/10 02:26:09;;;;;;;1.73;1.63;;;;;;;4.55;93.14;95368.41;5094215;28;20428;-56
2023/12/10 02:28:39;;;;;;;1.20;1.10;;;;;;;4.51;93.69;95362.00;5094098;28;20971;-57
2023/12/10 02:31:08;;;;;;;4.10;2.27;;;;;;;4.38;93.28;95362.22;5093498;28;20502;-56
2023/12/10 02:33:36;;;;;;;3.83;0.97;;;;;;;4.35;94.56;95376.59;5094206;28;20451;-56
2023/12/10 02:36:06;;;;;;;2.00;0.87;;;;;;;4.50;93.82;95374.31;5094281;28;20444;-56
2023/12/10 02:38:34;;;;;;;2.10;1.70;;;;;;;4.50;93.96;95365.66;5094059;28;20432;-56
2023/12/10 02:41:04;;;;;;;1.70;1.60;;;;;;;4.55;93.47;95363.16;5093469;28;20440;-56
2023/12/10 02:43:34;;;;;;;0.77;0.70;;;;;;;4.48;93.59;95359.81;5093779;28;20440;-56
2023/12/10 02:46:02;;;;;;;1.27;1.27;;;;;;;4.46;94.37;95367.13;5093753;28;20472;-56
2023/12/10 02:48:31;;;;;;;1.67;1.57;;;;;;;4.52;93.86;95358.34;5093512;28;21207;-56
2023/12/10 02:50:59;;;;;;;1.57;1.47;;;;;;;4.41;94.46;95343.41;5133680;27;20473;-56
2023/12/10 02:53:28;;;;;;;2.70;0.93;;;;;;;4.48;94.34;95357.19;5134680;27;20950;-55
2023/12/10 02:55:57;;;;;;;1.33;0.83;;;;;;;4.52;95.30;95358.34;5134760;27;20474;-56
2023/12/10 02:58:26;;;;;;;1.10;1.00;;;;;;;4.53;94.41;95354.69;5133909;27;20435;-56
2023/12/10 03:00:56;;;;;;;0.80;0.80;;;;;;;4.49;94.97;95356.19;5134821;27;20434;-57
2023/12/10 03:03:25;;;;;;;0.83;0.60;;;;;;;4.46;95.30;95360.06;5134525;27;20838;-57
2023/12/10 03:05:54;;;;;;;2.87;2.30;;;;;;;4.60;94.62;95358.00;5134670;27;20529;-57
2023/12/10 03:08:22;;;;;;;0.97;0.40;;;;;;;4.66;94.28;95351.81;5134390;27;20426;-56
2023/12/10 03:10:51;;;;;;;0.80;0.80;;;;;;;4.71;93.61;95364.25;5134341;27;20525;-57
2023/12/10 03:13:19;;;;;;;1.07;1.00;;;;;;;4.61;94.79;95366.66;5134373;27;20449;-56
2023/12/10 03:15:48;;;;;;;0.67;0.67;;;;;;;4.60;94.60;95365.06;5133978;27;20558;-56
2023/12/10 03:18:18;;;;;;;2.13;1.97;;;;;;;4.50;95.41;95365.66;5134089;27;20470;-57
2023/12/10 03:20:47;;;;;;;1.00;0.90;;;;;;;4.30;96.59;95363.38;5133954;27;20467;-56
2023/12/10 03:23:17;;;;;;;2.13;1.93;;;;;;;4.14;98.10;95365.91;5134338;27;20442;-57
2023/12/10 03:25:46;;;;;;;0.80;0.80;;;;;;;4.05;98.55;95367.28;5134171;27;20442;-56
2023/12/10 03:28:14;;;;;;;0.97;0.70;;;;;;;3.84;100.00;95366.78;5134316;27;20430;-56
2023/12/10 03:30:43;;;;;;;2.53;2.43;;;;;;;3.60;100.00;95375.63;5119462;27;20433;-56
2023/12/10 03:33:11;;;;;;;1.20;1.13;;;;;;;3.54;100.00;95371.25;5134145;27;20473;-56
2023/12/10 03:35:42;;;;;;;1.70;1.60;;;;;;;3.15;100.00;95375.25;5133529;27;20915;-57
2023/12/10 03:38:10;;;;;;;1.80;1.60;;;;;;;3.09;100.00;95373.50;5133818;27;20435;-56
2023/12/10 03:40:39;;;;;;;4.20;1.37;;;;;;;3.06;100.00;95381.03;5132518;27;20438;-57
2023/12/10 03:43:08;;;;;;;15.07;2.23;;;;;;;2.80;100.00;95360.38;5132694;27;20941;-56
2023/12/10 03:45:37;;;;;;;1.07;0.90;;;;;;;2.40;100.00;95378.34;5134236;27;20426;-56
2023/12/10 03:48:06;;;;;;;1.37;1.37;;;;;;;2.74;100.00;95387.41;5133202;27;20450;-56
2023/12/10 03:50:34;;;;;;;0.90;0.90;;;;;;;3.14;100.00;95388.53;5133664;27;20555;-57
2023/12/10 03:53:04;;;;;;;3.50;0.70;;;;;;;3.41;100.00;95396.88;5132874;27;20434;-56
2023/12/10 03:55:33;;;;;;;3.47;1.57;;;;;;;3.26;100.00;95393.84;5133334;27;20466;-56
2023/12/10 03:58:02;;;;;;;0.70;0.70;;;;;;;3.41;100.00;95387.19;5133404;27;20937;-56
2023/12/10 04:00:30;;;;;;;2.10;1.20;;;;;;;3.39;100.00;95389.22;5133162;27;20431;-56
2023/12/10 04:02:59;;;;;;;0.60;0.60;;;;;;;3.40;100.00;95384.78;5132570;27;20476;-56
2023/12/10 04:05:28;;;;;;;2.07;1.57;;;;;;;2.77;100.00;95296.19;5132308;27;20468;-56
2023/12/10 04:07:56;;;;;;;0.90;0.90;;;;;;;3.39;100.00;95389.22;5132745;27;20433;-56
2023/12/10 04:10:26;;;;;;;2.20;2.10;;;;;;;3.08;100.00;95384.22;5133185;27;20434;-56
2023/12/10 04:12:55;;;;;;;0.70;0.70;;;;;;;3.34;100.00;95386.47;5132523;27;20462;-56
2023/12/10 04:15:24;;;;;;;1.47;1.37;;;;;;;3.54;100.00;95396.69;5132757;27;20469;-56
2023/12/10 04:17:52;;;;;;;0.70;0.70;;;;;;;3.75;100.00;95393.53;5132820;27;20805;-56
2023/12/10 04:20:21;;;;;;;1.23;0.60;;;;;;;3.72;100.00;95394.78;5133035;27;20434;-56
2023/12/10 04:22:50;;;;;;;1.00;0.60;;;;;;;3.70;100.00;95391.59;5133200;27;20434;-56
2023/12/10 04:25:18;;;;;;;5.40;1.70;;;;;;;3.33;100.00;95321.22;5132216;27;21015;-56
2023/12/10 04:27:48;;;;;;;2.07;1.80;;;;;;;3.81;100.00;95398.69;5132725;27;20467;-56
2023/12/10 04:30:19;;;;;;;1.33;1.30;;;;;;;3.82;100.00;95410.75;5132971;27;20548;-56
2023/12/10 04:32:48;;;;;;;2.43;2.33;;;;;;;3.76;100.00;95395.16;5106292;27;20468;-57
2023/12/10 04:35:17;;;;;;;2.03;1.77;;;;;;;3.93;100.00;95392.66;5132328;27;20510;-57
2023/12/10 04:37:46;;;;;;;2.40;1.43;;;;;;;3.98;100.00;95388.34;5131817;27;20522;-56
2023/12/10 04:40:14;;;;;;;1.30;1.30;;;;;;;3.91;100.00;95381.59;5119005;27;20442;-56
2023/12/10 04:42:43;;;;;;;1.93;1.77;;;;;;;4.02;99.75;95392.13;5132605;27;20437;-56
2023/12/10 04:45:13;;;;;;;1.63;1.53;;;;;;;4.07;99.27;95394.88;5132597;27;20477;-56
2023/12/10 04:47:42;;;;;;;2.03;1.90;;;;;;;4.08;100.00;95396.44;5132508;27;20940;-56
2023/12/10 04:50:11;;;;;;;1.23;1.00;;;;;;;3.92;100.00;95396.31;5132309;27;20557;-56
2023/12/10 04:52:40;;;;;;;1.93;1.10;;;;;;;3.94;100.00;95389.03;5132439;27;20871;-56
2023/12/10 04:55:08;;;;;;;1.30;1.20;;;;;;;3.84;100.00;95389.59;5132766;27;20518;-56
2023/12/10 04:57:37;;;;;;;1.73;1.60;;;;;;;4.02;100.00;95393.94;5132192;27;20998;-56
2023/12/10 05:00:08;;;;;;;1.43;1.33;;;;;;;4.03;100.00;95393.72;5132671;27;20444;-56
2023/12/10 05:02:38;;;;;;;3.73;1.47;;;;;;;3.98;100.00;95400.66;5132770;28;20456;-56
2023/12/10 05:05:08;;;;;;;3.23;1.60;;;;;;;4.08;100.00;95388.59;5106273;28;20503;-56
2023/12/10 05:07:37;;;;;;;1.90;1.80;;;;;;;3.93;100.00;95376.94;5132003;28;20502;-56
2023/12/10 05:10:06;;;;;;;3.20;2.37;;;;;;;3.47;100.00;95360.09;5132726;27;20819;-56
2023/12/10 05:12:35;;;;;;;2.50;1.83;;;;;;;3.72;100.00;95410.50;5132232;28;20822;-56
2023/12/10 05:15:04;;;;;;;4.23;1.77;;;;;;;3.91;100.00;95400.75;5132439;28;20474;-57
2023/12/10 05:17:33;;;;;;;3.43;3.13;;;;;;;3.64;100.00;95404.81;5131766;27;20442;-57
2023/12/10 05:20:05;;;;;;;3.00;2.17;;;;;;;3.55;100.00;95408.75;5132214;28;20437;-56
2023/12/10 05:22:34;;;;;;;2.70;1.77;;;;;;;3.53;100.00;95411.59;5131504;28;20968;-56
2023/12/10 05:25:03;;;;;;;1.93;1.83;;;;;;;3.04;100.00;95323.63;5132123;28;20507;-56
2023/12/10 05:27:32;;;;;;;5.23;2.97;;;;;;;3.71;100.00;95398.44;5132009;27;20430;-57
2023/12/10 05:30:01;;;;;;;2.27;2.17;;;;;;;3.80;100.00;95406.78;5132261;28;20435;-57
2023/12/10 05:32:30;;;;;;;2.87;1.50;;;;;;;3.81;100.00;95408.38;5119311;28;20434;-57
2023/12/10 05:34:59;;;;;;;2.60;2.50;;;;;;;3.84;100.00;95413.19;5132511;27;20882;-57
2023/12/10 05:37:29;;;;;;;2.33;2.13;;;;;;;4.01;100.00;95410.69;5132447;28;20466;-57
2023/12/10 05:39:58;;;;;;;4.93;3.53;;;;;;;4.05;100.00;95409.22;5132183;27;20435;-56
2023/12/10 05:42:27;;;;;;;1.17;0.93;;;;;;;4.22;100.00;95404.91;5131880;28;20468;-57
2023/12/10 05:44:56;;;;;;;1.07;1.07;;;;;;;4.28;100.00;95406.59;5131543;28;20438;-56
2023/12/10 05:47:25;;;;;;;4.87;1.80;;;;;;;4.56;100.00;95403.28;5131656;27;20441;-57
2023/12/10 05:49:54;;;;;;;1.63;1.53;;;;;;;4.45;97.94;95404.91;5131043;28;20501;-56
2023/12/10 05:52:23;;;;;;;10.43;1.30;;;;;;;4.18;100.00;95403.75;5130328;28;20459;-57
2023/12/10 05:54:53;;;;;;;8.33;3.20;;;;;;;3.74;100.00;95350.03;5132242;27;20495;-56
2023/12/10 05:57:22;;;;;;;2.87;2.57;;;;;;;3.90;100.00;95406.25;5131213;28;20474;-56
2023/12/10 05:59:50;;;;;;;17.57;3.23;;;;;;;4.01;100.00;95413.31;5131631;27;20438;-56
2023/12/10 06:02:19;;;;;;;2.83;2.70;;;;;;;4.04;100.00;95407.63;5131467;28;20521;-57
2023/12/10 06:04:48;;;;;;;5.77;3.60;;;;;;;4.03;100.00;95390.28;5132153;27;20457;-56
2023/12/10 06:07:17;;;;;;;3.10;1.80;;;;;;;4.11;100.00;95416.19;5130022;27;20430;-56
2023/12/10 06:09:45;;;;;;;2.27;2.17;;;;;;;4.29;100.00;95416.09;5135279;27;20430;-56
2023/12/10 06:12:16;;;;;;;7.93;2.60;;;;;;;4.06;100.00;95421.31;5134870;27;20458;-56
2023/12/10 06:14:45;;;;;;;2.77;2.67;;;;;;;4.18;100.00;95414.25;5135126;27;20934;-57
2023/12/10 06:17:13;;;;;;;1.23;0.70;;;;;;;4.43;100.00;95391.22;5128089;27;20550;-56
2023/12/10 06:19:42;;;;;;;5.47;1.40;;;;;;;4.75;100.00;95396.91;5135051;27;20430;-56
2023/12/10 06:22:11;;;;;;;2.90;1.23;;;;;;;4.83;98.48;95402.56;5135169;27;20466;-56
2023/12/10 06:24:39;;;;;;;1.83;1.20;;;;;;;4.77;98.17;95429.78;5108142;27;20439;-56
2023/12/10 06:27:08;;;;;;;1.53;1.43;;;;;;;4.78;99.07;95431.34;5134881;27;20441;-56
2023/12/10 06:29:39;;;;;;;1.30;0.90;;;;;;;4.72;98.41;95427.03;5135054;27;20465;-57
2023/12/10 06:32:08;;;;;;;1.10;1.10;;;;;;;4.37;100.00;95419.19;5134960;27;20481;-56
2023/12/10 06:34:36;;;;;;;1.23;0.93;;;;;;;4.56;100.00;95416.41;5125980;27;20443;-56
2023/12/10 06:37:05;;;;;;;0.40;0.40;;;;;;;4.47;100.00;95402.88;5118720;27;20481;-56
2023/12/10 06:39:34;;;;;;;0.90;0.90;;;;;;;4.53;100.00;95406.41;5116051;27;20436;-56
2023/12/10 06:42:03;;;;;;;0.90;0.90;;;;;;;4.43;100.00;95407.75;5134048;27;20524;-56
2023/12/10 06:44:34;;;;;;;4.70;2.13;;;;;;;4.65;100.00;95418.50;5118783;27;20439;-57
2023/12/10 06:47:04;;;;;;;15.10;2.80;;;;;;;4.57;100.00;95418.84;5126959;27;20448;-57
2023/12/10 06:49:33;;;;;;;2.90;2.70;;;;;;;4.65;100.00;95421.13;5114284;28;20490;-56
2023/12/10 06:52:02;;;;;;;9.60;6.00;;;;;;;4.54;100.00;95415.84;5133662;27;20438;-56
2023/12/10 06:54:30;;;;;;;2.63;2.53;;;;;;;4.56;100.00;95419.03;5134591;27;20534;-57
2023/12/10 06:56:59;;;;;;;10.00;3.50;;;;;;;4.66;100.00;95419.25;5134585;27;20502;-57
2023/12/10 06:59:28;;;;;;;9.63;4.00;;;;;;;4.80;99.57;95410.13;5134325;27;20430;-56
2023/12/10 07:01:56;;;;;;;4.80;4.30;;;;;;;4.81;98.05;95417.78;5133992;27;20431;-56
2023/12/10 07:04:27;;;;;;;2.70;2.20;;;;;;;4.45;100.00;95415.41;5134163;27;20475;-56
2023/12/10 07:06:55;;;;;;;4.17;2.63;;;;;;;4.38;100.00;95428.63;5134554;27;20441;-56
2023/12/10 07:09:24;;;;;;;14.90;3.83;;;;;;;4.59;100.00;95429.09;5133665;27;20430;-57
2023/12/10 07:11:53;;;;;;;5.73;3.63;;;;;;;4.40;100.00;95436.28;5134065;27;20486;-57
2023/12/10 07:14:22;;;;;;;2.07;1.80;;;;;;;4.36;100.00;95435.13;5133969;27;20807;-56
2023/12/10 07:16:50;;;;;;;7.93;3.77;;;;;;;4.78;100.00;95441.84;5133908;27;20476;-56
2023/12/10 07:19:19;;;;;;;1.20;1.00;;;;;;;5.14;99.75;95436.31;5134448;27;20526;-57
2023/12/10 07:21:52;;;;;;;2.20;2.00;;;;;;;5.36;98.44;95433.88;5134092;27;20968;-57
2023/12/10 07:24:21;;;;;;;2.40;1.37;;;;;;;5.17;96.32;95390.41;5133990;27;20434;-57
2023/12/10 07:26:51;;;;;;;0.50;0.50;;;;;;;5.35;96.64;95448.03;5133771;27;20453;-57
2023/12/10 07:29:20;;;;;;;7.43;1.43;;;;;;;5.45;95.92;95437.72;5133726;27;20423;-57
2023/12/10 07:31:48;;;;;;;2.30;1.70;;;;;;;5.95;95.30;95432.59;5133478;27;20439;-57
2023/12/10 07:34:17;;;;;;;2.17;0.53;;;;;;;5.76;92.11;95432.00;5132648;27;20439;-58
2023/12/10 07:36:45;;;;;;;6.30;2.70;;;;;;;5.27;95.40;95434.47;5133254;27;20501;-58
2023/12/10 07:39:16;;;;;;;9.87;3.70;;;;;;;5.45;96.70;95437.72;5106936;27;20442;-57
2023/12/10 07:41:44;;;;;;;1.63;1.53;;;;;;;5.43;94.86;95436.38;5133855;27;20517;-58
2023/12/10 07:44:13;;;;;;;2.03;1.43;;;;;;;5.63;94.47;95436.75;5134214;27;21043;-58
2023/12/10 07:46:41;;;;;;;1.83;1.70;;;;;;;5.23;95.43;95441.22;5133362;27;20491;-58
2023/12/10 07:49:10;;;;;;;2.07;1.80;;;;;;;4.71;100.00;95446.44;5132712;27;20482;-57
2023/12/10 07:51:39;;;;;;;3.63;1.70;;;;;;;4.95;100.00;95434.91;5132465;27;20453;-58
2023/12/10 07:54:08;;;;;;;1.63;1.33;;;;;;;4.69;100.00;95464.25;5133607;27;20525;-58
2023/12/10 07:56:38;;;;;;;7.33;2.70;;;;;;;4.53;100.00;95459.66;5132460;27;20442;-57
2023/12/10 07:59:06;;;;;;;1.57;1.27;;;;;;;4.80;100.00;95471.34;5131164;27;20491;-57
2023/12/10 08:01:35;;;;;;;1.20;1.17;;;;;;;5.21;100.00;95456.44;5130107;27;20439;-57
2023/12/10 08:04:04;;;;;;;7.70;2.07;;;;;;;5.31;100.00;95441.66;5131752;27;20495;-57
2023/12/10 08:06:32;;;;;;;1.93;1.30;;;;;;;5.25;100.00;95453.09;5131914;27;20439;-58
2023/12/10 08:09:04;;;;;;;0.90;0.90;;;;;;;5.04;99.83;95380.16;5131337;27;20434;-58
2023/12/10 08:11:33;;;;;;;2.37;2.27;;;;;;;5.21;99.25;95467.75;5130889;27;20483;-58
2023/12/10 08:14:03;;;;;;;2.70;2.50;;;;;;;5.23;100.00;95475.38;5133269;27;20445;-58
2023/12/10 08:16:31;;;;;;;8.50;1.90;;;;;;;5.04;100.00;95444.00;5106325;27;20435;-58
2023/12/10 08:19:04;;;;;;;4.47;2.07;;;;;;;5.19;100.00;95459.28;5132788;27;20965;-59
2023/12/10 08:21:33;;;;;;;7.13;1.03;;;;;;;4.46;100.00;95385.50;5132899;27;20441;-58
2023/12/10 08:24:02;;;;;;;2.47;1.13;;;;;;;5.39;99.02;95453.66;5132617;27;20810;-58
2023/12/10 08:26:30;;;;;;;1.87;1.77;;;;;;;4.95;97.94;95406.00;5133172;27;20434;-58
2023/12/10 08:28:59;;;;;;;2.30;1.37;;;;;;;5.07;100.00;95451.44;5132085;27;20951;-59
2023/12/10 08:31:29;;;;;;;3.63;1.60;;;;;;;5.55;98.30;95456.31;5132860;27;20431;-58
2023/12/10 08:33:58;;;;;;;2.67;2.57;;;;;;;5.14;99.24;95438.16;5132621;27;20514;-58
2023/12/10 08:36:27;;;;;;;6.30;2.53;;;;;;;5.40;99.78;95453.41;5132823;27;20500;-59
2023/12/10 08:38:56;;;;;;;6.10;2.77;;;;;;;5.60;98.86;95450.34;5132693;27;20496;-60
2023/12/10 08:41:24;;;;;;;1.33;1.23;;;;;;;5.67;99.07;95477.31;5132356;27;20926;-59
2023/12/10 08:43:53;;;;;;;4.30;1.47;;;;;;;5.72;96.22;95451.09;5132828;27;20507;-59
2023/12/10 08:46:22;;;;;;;2.00;1.90;;;;;;;5.97;95.75;95446.31;5132642;27;20434;-59
2023/12/10 08:48:52;;;;;;;7.43;3.30;;;;;;;5.79;95.90;95431.50;5132711;27;20426;-58
2023/12/10 08:51:21;;;;;;;5.37;3.20;;;;;;;5.55;96.97;95440.53;5132385;27;20430;-58
2023/12/10 08:53:49;;;;;;;5.80;2.10;;;;;;;5.60;98.08;95429.31;5133030;27;20434;-59
2023/12/10 08:56:18;;;;;;;3.30;1.40;;;;;;;6.00;96.96;95431.88;5132621;27;20438;-58
2023/12/10 08:58:47;;;;;;;6.13;3.63;;;;;;;5.71;96.05;95410.88;5132430;27;21130;-59
2023/12/10 09:01:16;;;;;;;2.60;2.50;;;;;;;5.62;97.74;95424.63;5132696;27;20462;-58
2023/12/10 09:03:45;;;;;;;3.67;1.27;;;;;;;5.41;97.94;95418.22;5132692;28;20464;-59
2023/12/10 09:06:15;;;;;;;1.70;1.60;;;;;;;5.48;99.87;95420.69;5132735;27;20934;-59
2023/12/10 09:08:44;;;;;;;2.50;2.40;;;;;;;5.65;98.18;95409.19;5132611;28;20951;-59
2023/12/10 09:11:13;;;;;;;4.93;1.73;;;;;;;5.65;98.75;95408.38;5132328;28;20441;-59
2023/12/10 09:13:41;;;;;;;1.83;1.53;;;;;;;5.81;97.23;95407.63;5132272;28;20431;-58
2023/12/10 09:16:10;;;;;;;1.00;1.00;;;;;;;6.09;95.27;95412.06;5132367;27;20462;-58
2023/12/10 09:18:39;;;;;;;1.93;1.83;;;;;;;6.35;93.00;95406.94;5132337;27;20478;-59
2023/12/10 09:21:08;;;;;;;0.73;0.60;;;;;;;6.28;93.55;95381.81;5132152;28;20866;-59
2023/12/10 09:23:38;;;;;;;0.87;0.87;;;;;;;6.50;91.65;95392.44;5132227;27;20443;-59
2023/12/10 09:26:07;;;;;;;1.57;1.47;;;;;;;6.18;92.47;95382.47;5132060;28;20922;-59
2023/12/10 09:28:36;;;;;;;2.20;1.60;;;;;;;6.51;90.54;95378.22;5132558;28;20470;-59
2023/12/10 09:31:05;;;;;;;2.47;1.57;;;;;;;6.80;89.90;95372.59;5132081;28;20430;-59
2023/12/10 09:33:33;;;;;;;3.97;1.17;;;;;;;7.22;87.39;95362.28;5131727;28;20444;-58
2023/12/10 09:36:02;;;;;;;2.10;2.00;;;;;;;6.69;85.64;95254.16;5105714;28;20529;-59
2023/12/10 09:38:31;;;;;;;1.73;1.57;;;;;;;7.57;83.31;95352.09;5132058;27;20560;-58
2023/12/10 09:41:01;;;;;;;7.53;2.37;;;;;;;7.13;85.30;95339.25;5134967;27;20525;-58
2023/12/10 09:43:29;;;;;;;1.00;1.00;;;;;;;7.06;86.76;95343.91;5135484;27;20526;-58
2023/12/10 09:45:58;;;;;;;3.47;2.27;;;;;;;6.50;89.36;95352.94;5135379;27;20459;-58
2023/12/10 09:48:27;;;;;;;5.23;4.70;;;;;;;6.50;90.26;95345.03;5132910;27;20458;-57
2023/12/10 09:50:56;;;;;;;2.70;2.40;;;;;;;6.94;88.92;95336.13;5125499;27;20525;-58
2023/12/10 09:53:24;;;;;;;7.63;5.57;;;;;;;6.96;87.97;95326.13;5135338;27;20426;-58
2023/12/10 09:55:53;;;;;;;9.70;3.00;;;;;;;6.98;88.24;95331.97;5135660;27;20448;-59
2023/12/10 09:58:23;;;;;;;4.80;2.33;;;;;;;6.96;88.82;95321.66;5135209;27;20898;-58
2023/12/10 10:00:52;;;;;;;2.43;1.30;;;;;;;6.63;89.48;95324.41;5135853;27;20442;-58
2023/12/10 10:03:21;;;;;;;9.13;4.53;;;;;;;6.67;90.32;95319.47;5134889;27;20434;-58
2023/12/10 10:05:50;;;;;;;3.00;1.73;;;;;;;6.66;89.54;95320.47;5135249;27;20478;-58
2023/12/10 10:08:19;;;;;;;3.13;2.90;;;;;;;6.75;89.15;95317.19;5135575;27;20431;-57
2023/12/10 10:10:47;;;;;;;4.57;2.20;;;;;;;6.43;92.06;95302.28;5135320;27;20434;-58
2023/12/10 10:13:16;;;;;;;3.50;2.63;;;;;;;6.34;92.94;95318.50;5109311;27;20525;-58
2023/12/10 10:15:47;;;;;;;5.30;2.67;;;;;;;5.84;95.71;95304.59;5135164;27;20434;-57
2023/12/10 10:18:16;;;;;;;5.10;3.53;;;;;;;5.34;100.00;95245.94;5135587;27;20484;-58
2023/12/10 10:20:45;;;;;;;9.30;2.40;;;;;;;5.63;100.00;95292.13;5134977;27;20441;-57
2023/12/10 10:23:14;;;;;;;4.87;4.47;;;;;;;5.87;100.00;95304.09;5135498;27;20441;-58
2023/12/10 10:25:43;;;;;;;2.17;2.07;;;;;;;6.44;96.77;95303.88;5135345;27;20462;-57
2023/12/10 10:28:13;;;;;;;2.53;2.33;;;;;;;6.12;97.01;95296.59;5135228;27;20437;-58
2023/12/10 10:30:42;;;;;;;3.90;1.63;;;;;;;6.22;96.04;95291.47;5134576;27;20466;-57
2023/12/10 10:33:14;;;;;;;8.63;2.67;;;;;;;6.41;95.63;95289.38;5135267;27;20438;-58
2023/12/10 10:35:43;;;;;;;5.70;2.53;;;;;;;5.95;96.61;95287.94;5134919;27;20472;-58
2023/12/10 10:38:11;;;;;;;4.83;4.50;;;;;;;5.66;99.70;95286.41;5134761;27;20461;-58
2023/12/10 10:40:40;;;;;;;9.40;2.97;;;;;;;6.04;100.00;95281.25;5134888;27;20922;-58
2023/12/10 10:43:09;;;;;;;4.67;4.37;;;;;;;6.17;98.97;95283.50;5135019;27;21147;-58
2023/12/10 10:45:37;;;;;;;5.30;3.13;;;;;;;6.36;95.80;95255.88;5134354;27;20438;-58
2023/12/10 10:48:06;;;;;;;1.60;1.50;;;;;;;6.94;92.46;95254.44;5134404;27;20899;-57
2023/12/10 10:50:39;;;;;;;20.00;3.07;;;;;;;6.72;90.63;95214.97;5107828;27;20506;-58
2023/12/10 10:53:08;;;;;;;2.00;1.90;;;;;;;7.04;89.74;95268.53;5134301;27;20438;-57
2023/12/10 10:55:37;;;;;;;1.17;1.17;;;;;;;7.50;88.21;95259.22;5134479;27;20521;-57
2023/12/10 10:58:26;;;;;;;2.13;1.83;;;;;;;7.47;86.34;95233.34;5134287;27;20438;-58
2023/12/10 11:00:55;;;;;;;2.70;0.93;;;;;;;7.46;86.51;95208.00;5134548;27;20431;-59
2023/12/10 11:03:27;;;;;;;0.77;0.77;;;;;;;8.12;83.57;95235.63;5134230;27;20441;-59
2023/12/10 11:06:02;;;;;;;1.53;1.43;;;;;;;7.62;83.59;95243.19;5134568;27;20430;-58
2023/12/10 11:08:35;;;;;;;1.37;1.37;;;;;;;8.13;82.66;95207.38;5134231;27;20985;-59
2023/12/10 11:11:03;;;;;;;1.03;1.03;;;;;;;8.06;81.34;95241.16;5134380;27;20487;-59
2023/12/10 11:13:45;;;;;;;1.70;1.60;;;;;;;7.80;83.15;95228.81;5134505;27;20435;-59
2023/12/10 11:16:14;;;;;;;3.87;1.97;;;;;;;7.62;85.10;95222.91;5133600;27;20525;-58
2023/12/10 11:18:53;;;;;;;2.67;2.53;;;;;;;7.28;84.41;95215.50;5134476;27;21017;-58
2023/12/10 11:21:23;;;;;;;20.17;2.67;;;;;;;7.33;85.78;95234.81;5133794;27;20527;-58
2023/12/10 11:23:53;;;;;;;2.77;2.50;;;;;;;7.87;84.07;95205.69;5134076;27;20499;-59
2023/12/10 11:26:21;;;;;;;6.20;1.73;;;;;;;8.37;81.57;95219.19;5133680;27;20438;-59
2023/12/10 11:28:51;;;;;;;8.20;3.37;;;;;;;8.20;81.64;95221.16;5134090;27;20784;-58
2023/12/10 11:31:20;;;;;;;4.27;2.83;;;;;;;7.91;81.96;95202.25;5134081;27;20442;-59
2023/12/10 11:33:50;;;;;;;9.37;5.87;;;;;;;7.70;82.99;95221.63;5133746;27;20431;-59
2023/12/10 11:36:19;;;;;;;4.93;4.53;;;;;;;7.28;84.35;95213.69;5133858;27;20438;-59
2023/12/10 11:39:13;;;;;;;5.80;3.57;;;;;;;7.11;85.30;95209.56;5133402;27;20517;-59
2023/12/10 11:41:43;;;;;;;4.00;3.70;;;;;;;6.97;86.29;95211.78;5133925;27;20462;-58
2023/12/10 11:44:26;;;;;;;3.10;2.90;;;;;;;7.13;87.66;95208.28;5133652;27;20433;-58
2023/12/10 11:46:57;;;;;;;6.20;2.83;;;;;;;7.39;86.61;95199.50;5132756;27;20819;-58
2023/12/10 11:49:26;;;;;;;2.30;2.20;;;;;;;7.21;86.97;95205.16;5132971;27;20482;-58